createdAt,value
2018-07-13T00:01:14.036Z,20.62
2018-07-13T00:03:44.013Z,20.77
2018-07-13T00:06:14.073Z,19.83
2018-07-13T00:08:44.061Z,19.40
2018-07-13T00:11:14.146Z,19.43
2018-07-13T00:14:13.872Z,19.97
2018-07-13T00:16:44.963Z,17.97
2018-07-13T00:19:20.097Z,19.10
2018-07-13T00:21:48.788Z,20.40
2018-07-13T00:24:17.396Z,20.30
2018-07-13T00:26:45.944Z,19.93
2018-07-13T00:29:14.540Z,19.73
2018-07-13T00:31:43.737Z,18.10
2018-07-13T00:34:12.604Z,18.45
2018-07-13T00:36:41.164Z,19.23
2018-07-13T00:39:11.575Z,19.43
2018-07-13T00:41:40.184Z,19.03
2018-07-13T00:44:09.148Z,19.23
2018-07-13T00:46:37.676Z,19.50
2018-07-13T00:49:06.415Z,20.80
2018-07-13T00:51:35.013Z,21.10
2018-07-13T00:54:03.584Z,19.13
2018-07-13T00:56:32.132Z,20.40
2018-07-13T00:59:00.699Z,19.87
2018-07-13T01:01:29.241Z,21.33
2018-07-13T01:03:57.819Z,18.37
2018-07-13T01:06:26.347Z,20.00
2018-07-13T01:08:54.910Z,18.93
2018-07-13T01:11:23.452Z,19.97
2018-07-13T01:13:52.720Z,18.63
2018-07-13T01:16:21.264Z,19.50
2018-07-13T01:18:49.836Z,18.87
2018-07-13T01:21:18.375Z,19.40
2018-07-13T01:23:46.948Z,20.30
2018-07-13T01:26:15.500Z,18.87
2018-07-13T01:28:44.080Z,18.37
2018-07-13T01:31:12.620Z,18.20
2018-07-13T01:33:41.197Z,19.13
2018-07-13T01:36:09.721Z,19.67
2018-07-13T01:38:38.265Z,19.67
2018-07-13T01:41:06.789Z,18.50
2018-07-13T01:43:35.340Z,18.40
2018-07-13T01:46:03.884Z,19.83
2018-07-13T01:48:32.445Z,18.50
2018-07-13T01:51:00.964Z,17.90
2018-07-13T01:53:29.516Z,17.93
2018-07-13T01:55:58.065Z,18.90
2018-07-13T01:58:26.608Z,18.80
2018-07-13T02:00:55.111Z,17.77
2018-07-13T02:03:23.683Z,18.70
2018-07-13T02:05:52.189Z,17.98
2018-07-13T02:08:20.728Z,19.70
2018-07-13T02:10:49.256Z,18.97
2018-07-13T02:13:17.811Z,19.10
2018-07-13T02:15:46.380Z,19.07
2018-07-13T02:18:14.892Z,20.17
2018-07-13T02:20:44.043Z,20.37
2018-07-13T02:23:12.555Z,20.97
2018-07-13T02:25:41.100Z,19.70
2018-07-13T02:28:09.625Z,19.20
2018-07-13T02:30:38.165Z,20.10
2018-07-13T02:33:06.717Z,19.80
2018-07-13T02:35:35.286Z,20.13
2018-07-13T02:38:03.792Z,20.10
2018-07-13T02:40:32.342Z,19.57
2018-07-13T02:43:00.854Z,18.43
2018-07-13T02:45:29.405Z,18.67
2018-07-13T02:47:57.938Z,19.23
2018-07-13T02:50:26.491Z,18.03
2018-07-13T02:52:55.009Z,20.37
2018-07-13T02:55:23.553Z,19.17
2018-07-13T02:57:52.077Z,19.75
2018-07-13T03:00:20.644Z,19.13
2018-07-13T03:02:49.173Z,20.17
2018-07-13T03:05:17.720Z,18.87
2018-07-13T03:07:46.239Z,19.87
2018-07-13T03:10:14.801Z,18.50
2018-07-13T03:12:43.322Z,21.53
2018-07-13T03:15:11.905Z,20.30
2018-07-13T03:17:40.443Z,19.80
2018-07-13T03:20:09.306Z,21.37
2018-07-13T03:22:37.817Z,19.20
2018-07-13T03:25:06.548Z,19.67
2018-07-13T03:27:35.066Z,21.07
2018-07-13T03:30:03.645Z,19.70
2018-07-13T03:32:32.202Z,19.67
2018-07-13T03:35:00.746Z,19.20
2018-07-13T03:37:29.269Z,18.07
2018-07-13T03:39:57.841Z,17.30
2018-07-13T03:42:26.344Z,19.83
2018-07-13T03:44:54.888Z,19.70
2018-07-13T03:47:23.400Z,18.10
2018-07-13T03:49:51.944Z,18.70
2018-07-13T03:52:20.494Z,18.70
2018-07-13T03:54:49.039Z,20.90
2018-07-13T03:57:17.566Z,21.23
2018-07-13T03:59:46.138Z,20.20
2018-07-13T04:02:14.672Z,21.40
2018-07-13T04:04:43.225Z,21.00
2018-07-13T04:07:11.828Z,22.10
2018-07-13T04:09:40.296Z,21.97
2018-07-13T04:12:08.881Z,22.30
2018-07-13T04:14:37.491Z,22.53
2018-07-13T04:17:06.021Z,22.90
2018-07-13T04:19:34.600Z,22.63
2018-07-13T04:22:03.201Z,21.27
2018-07-13T04:24:31.778Z,23.73
2018-07-13T04:27:00.659Z,22.77
2018-07-13T04:29:29.188Z,21.27
2018-07-13T04:31:57.773Z,22.00
2018-07-13T04:34:26.333Z,22.45
2018-07-13T04:36:54.909Z,22.03
2018-07-13T04:39:23.430Z,20.95
2018-07-13T04:41:51.981Z,21.70
2018-07-13T04:44:20.511Z,21.20
2018-07-13T04:46:49.090Z,20.37
2018-07-13T04:49:17.648Z,20.23
2018-07-13T04:51:46.374Z,21.57
2018-07-13T04:54:14.940Z,21.30
2018-07-13T04:56:43.821Z,20.03
2018-07-13T04:59:12.457Z,22.63
2018-07-13T05:01:41.077Z,20.97
2018-07-13T05:04:09.644Z,21.57
2018-07-13T05:06:38.229Z,20.33
2018-07-13T05:09:07.728Z,22.00
2018-07-13T05:11:36.364Z,20.62
2018-07-13T05:14:04.945Z,22.30
2018-07-13T05:16:33.524Z,21.60
2018-07-13T05:19:02.037Z,20.43
2018-07-13T05:21:30.625Z,22.80
2018-07-13T05:23:59.193Z,22.00
2018-07-13T05:26:28.285Z,20.63
2018-07-13T05:28:56.891Z,20.73
2018-07-13T05:31:25.508Z,21.43
2018-07-13T05:33:54.088Z,21.93
2018-07-13T05:36:22.676Z,19.97
2018-07-13T05:38:51.244Z,20.47
2018-07-13T05:41:20.696Z,20.90
2018-07-13T05:43:49.446Z,21.20
2018-07-13T05:46:18.029Z,19.20
2018-07-13T05:48:46.587Z,20.90
2018-07-13T05:51:15.180Z,20.43
2018-07-13T05:53:43.745Z,19.73
2018-07-13T05:56:12.332Z,21.20
2018-07-13T05:58:40.893Z,18.80
2018-07-13T06:01:09.498Z,18.40
2018-07-13T06:03:38.055Z,19.13
2018-07-13T06:06:06.633Z,17.60
2018-07-13T06:08:35.212Z,19.20
2018-07-13T06:11:03.817Z,18.52
2018-07-13T06:13:32.381Z,17.57
2018-07-13T06:16:00.975Z,17.73
2018-07-13T06:18:29.536Z,16.60
2018-07-13T06:20:58.057Z,17.50
2018-07-13T06:23:26.624Z,17.13
2018-07-13T06:25:55.141Z,17.07
2018-07-13T06:28:23.813Z,17.67
2018-07-13T06:30:52.336Z,16.60
2018-07-13T06:33:20.958Z,17.20
2018-07-13T06:35:49.471Z,16.67
2018-07-13T06:38:18.044Z,15.80
2018-07-13T06:40:47.947Z,16.70
2018-07-13T06:43:17.208Z,16.25
2018-07-13T06:45:45.729Z,16.00
2018-07-13T06:48:17.352Z,16.23
2018-07-13T06:50:45.907Z,15.70
2018-07-13T06:53:16.089Z,15.43
2018-07-13T06:55:45.015Z,16.17
2018-07-13T06:58:24.925Z,15.83
2018-07-13T07:00:56.912Z,17.05
2018-07-13T07:03:26.162Z,15.75
2018-07-13T07:05:59.003Z,16.30
2018-07-13T07:08:27.617Z,15.68
2018-07-13T07:10:56.707Z,16.77
2018-07-13T07:13:38.856Z,15.80
2018-07-13T07:16:07.400Z,15.30
2018-07-13T07:18:36.172Z,15.20
2018-07-13T07:21:04.728Z,15.80
2018-07-13T07:23:33.663Z,14.87
2018-07-13T07:26:03.044Z,15.10
2018-07-13T07:28:31.625Z,13.90
2018-07-13T07:31:01.154Z,14.87
2018-07-13T07:33:29.780Z,14.60
2018-07-13T07:35:58.304Z,13.87
2018-07-13T07:38:29.705Z,14.70
2018-07-13T07:40:58.728Z,14.17
2018-07-13T07:43:34.353Z,14.13
2018-07-13T07:46:03.071Z,14.07
2018-07-13T07:48:31.669Z,13.27
2018-07-13T07:51:00.200Z,13.97
2018-07-13T07:53:28.792Z,13.13
2018-07-13T07:55:58.161Z,13.33
2018-07-13T07:58:26.892Z,12.70
2018-07-13T08:00:55.428Z,12.67
2018-07-13T08:03:23.952Z,12.73
2018-07-13T08:05:52.573Z,14.10
2018-07-13T08:08:21.080Z,12.40
2018-07-13T08:10:53.143Z,11.53
2018-07-13T08:13:21.812Z,12.57
2018-07-13T08:15:51.424Z,13.23
2018-07-13T08:18:20.581Z,12.83
2018-07-13T08:21:05.061Z,12.13
2018-07-13T08:23:45.639Z,12.77
2018-07-13T08:26:16.836Z,12.60
2018-07-13T08:28:58.276Z,12.43
2018-07-13T08:31:39.613Z,16.27
2018-07-13T08:34:08.274Z,12.20
2018-07-13T08:36:37.985Z,13.80
2018-07-13T08:39:07.607Z,13.77
2018-07-13T08:41:36.836Z,13.27
2018-07-13T08:44:05.553Z,13.48
2018-07-13T08:46:34.221Z,13.60
2018-07-13T08:49:02.817Z,12.97
2018-07-13T08:51:31.991Z,14.00
2018-07-13T08:54:01.068Z,16.57
2018-07-13T08:56:30.329Z,14.93
2018-07-13T08:59:00.708Z,13.90
2018-07-13T09:01:29.365Z,12.90
2018-07-13T09:03:58.499Z,13.67
2018-07-13T09:06:29.224Z,28.45
2018-07-13T09:08:58.073Z,13.68
2018-07-13T09:11:26.677Z,14.00
2018-07-13T09:13:56.244Z,15.00
2018-07-13T09:16:25.609Z,14.33
2018-07-13T09:18:54.316Z,18.87
2018-07-13T09:21:22.901Z,14.57
2018-07-13T09:24:04.037Z,13.00
2018-07-13T09:26:32.696Z,12.80
2018-07-13T09:29:01.918Z,13.10
2018-07-13T09:31:31.941Z,11.80
2018-07-13T09:34:00.829Z,10.00
2018-07-13T09:36:31.064Z,9.60
2018-07-13T09:38:59.904Z,10.60
2018-07-13T09:41:28.548Z,9.70
2018-07-13T09:43:57.258Z,9.73
2018-07-13T09:46:26.047Z,10.47
2018-07-13T09:48:55.130Z,10.53
2018-07-13T09:51:23.764Z,10.20
2018-07-13T09:53:52.681Z,10.47
2018-07-13T09:56:27.273Z,10.53
2018-07-13T09:58:56.270Z,10.00
2018-07-13T10:01:25.356Z,10.10
2018-07-13T10:04:09.310Z,9.55
2018-07-13T10:06:51.127Z,8.97
2018-07-13T10:09:32.868Z,9.10
2018-07-13T10:12:21.459Z,8.43
2018-07-13T10:15:00.915Z,8.67
2018-07-13T10:17:41.203Z,8.20
2018-07-13T10:20:17.698Z,8.50
2018-07-13T10:22:46.716Z,7.57
2018-07-13T10:25:15.409Z,8.10
2018-07-13T10:27:44.052Z,7.97
2018-07-13T10:30:13.748Z,7.67
2018-07-13T10:32:44.372Z,7.87
2018-07-13T10:35:13.104Z,7.27
2018-07-13T10:37:42.896Z,7.13
2018-07-13T10:40:11.441Z,7.00
2018-07-13T10:42:40.014Z,6.47
2018-07-13T10:45:08.945Z,6.27
2018-07-13T10:47:38.400Z,6.07
2018-07-13T10:50:07.649Z,6.60
2018-07-13T10:52:47.782Z,7.00
2018-07-13T10:55:27.158Z,6.43
2018-07-13T10:58:06.867Z,7.47
2018-07-13T11:00:54.573Z,7.20
2018-07-13T11:03:24.947Z,6.77
2018-07-13T11:05:53.537Z,6.60
2018-07-13T11:08:22.989Z,6.30
2018-07-13T11:10:52.232Z,7.80
2018-07-13T11:13:22.964Z,7.33
2018-07-13T11:15:51.632Z,7.57
2018-07-13T11:18:24.721Z,9.57
2018-07-13T11:20:54.409Z,8.75
2018-07-13T11:23:25.597Z,10.30
2018-07-13T11:25:54.613Z,9.10
2018-07-13T11:28:25.100Z,9.93
2018-07-13T11:30:55.847Z,10.13
2018-07-13T11:33:24.727Z,9.57
2018-07-13T11:35:56.007Z,9.93
2018-07-13T11:38:25.165Z,9.57
2018-07-13T11:40:54.801Z,9.23
2018-07-13T11:43:25.090Z,9.33
2018-07-13T11:45:54.916Z,8.85
2018-07-13T11:48:24.510Z,9.27
2018-07-13T11:50:57.676Z,8.83
2018-07-13T11:53:33.261Z,9.43
2018-07-13T11:56:02.404Z,8.90
2018-07-13T11:58:31.331Z,9.27
2018-07-13T12:01:00.150Z,9.00
2018-07-13T12:03:28.927Z,8.43
2018-07-13T12:06:12.076Z,8.00
2018-07-13T12:08:57.028Z,8.00
2018-07-13T12:11:35.376Z,8.97
2018-07-13T12:14:04.401Z,8.53
2018-07-13T12:16:32.927Z,8.47
2018-07-13T12:19:01.629Z,8.80
2018-07-13T12:21:32.290Z,9.87
2018-07-13T12:24:00.992Z,8.57
2018-07-13T12:26:29.504Z,8.50
2018-07-13T12:28:58.065Z,8.47
2018-07-13T12:31:27.229Z,8.67
2018-07-13T12:33:55.809Z,8.67
2018-07-13T12:36:32.867Z,8.35
2018-07-13T12:39:11.680Z,8.20
2018-07-13T12:44:48.583Z,8.98
2018-07-13T12:47:31.658Z,7.97
2018-07-13T12:50:12.290Z,8.43
2018-07-13T12:58:46.077Z,8.87
2018-07-13T13:01:25.627Z,8.33
2018-07-13T13:04:13.742Z,8.05
2018-07-13T13:07:01.892Z,8.60
2018-07-13T13:12:38.198Z,8.87
2018-07-13T13:15:26.285Z,8.08
2018-07-13T13:18:10.023Z,8.23
2018-07-13T13:23:54.954Z,8.17
2018-07-13T13:26:36.832Z,7.73
2018-07-13T13:29:18.432Z,7.83
2018-07-13T13:37:30.149Z,7.00
2018-07-13T13:43:04.577Z,6.70
2018-07-13T13:45:51.413Z,6.53
2018-07-13T13:48:35.804Z,6.80
2018-07-13T13:51:18.734Z,6.63
2018-07-13T13:54:03.634Z,7.87
2018-07-13T13:56:45.228Z,7.10
2018-07-13T13:59:27.281Z,7.17
2018-07-13T14:02:10.385Z,7.03
2018-07-13T14:04:57.997Z,7.80
2018-07-13T14:07:39.737Z,6.23
2018-07-13T14:10:26.921Z,6.67
2018-07-13T14:13:08.579Z,6.50
2018-07-13T14:15:55.928Z,7.07
2018-07-13T14:18:40.125Z,6.67
2018-07-13T14:21:29.349Z,6.97
2018-07-13T14:24:16.614Z,6.67
2018-07-13T14:26:46.293Z,6.90
2018-07-13T14:29:14.844Z,6.70
2018-07-13T14:31:43.372Z,6.97
2018-07-13T14:34:12.801Z,6.23
2018-07-13T14:36:43.080Z,7.10
2018-07-13T14:39:11.921Z,6.73
2018-07-13T14:41:40.445Z,7.60
2018-07-13T14:44:09.025Z,6.75
2018-07-13T14:46:37.591Z,6.80
2018-07-13T14:49:06.644Z,7.03
2018-07-13T14:51:35.251Z,7.33
2018-07-13T14:54:03.873Z,6.45
2018-07-13T14:56:32.514Z,7.20
2018-07-13T14:59:01.177Z,7.73
2018-07-13T15:01:30.042Z,7.37
2018-07-13T15:03:58.626Z,7.40
2018-07-13T15:06:27.548Z,6.70
2018-07-13T15:08:56.224Z,6.60
2018-07-13T15:11:25.574Z,6.80
2018-07-13T15:13:54.282Z,7.10
2018-07-13T15:16:23.013Z,7.40
2018-07-13T15:18:53.147Z,6.87
2018-07-13T15:21:21.721Z,6.80
2018-07-13T15:23:51.745Z,6.70
2018-07-13T15:26:20.349Z,6.27
2018-07-13T15:28:48.857Z,4.80
2018-07-13T15:31:17.527Z,4.40
2018-07-13T15:33:46.086Z,4.57
2018-07-13T15:36:14.637Z,4.00
2018-07-13T15:41:13.140Z,4.10
2018-07-13T15:43:41.752Z,3.87
2018-07-13T15:46:10.616Z,4.53
2018-07-13T15:48:39.220Z,4.30
2018-07-13T15:51:07.809Z,4.25
2018-07-13T15:53:36.345Z,3.87
2018-07-13T15:56:05.845Z,3.90
2018-07-13T15:58:34.468Z,4.50
2018-07-13T16:01:03.024Z,4.33
2018-07-13T16:03:31.561Z,3.63
2018-07-13T16:06:00.366Z,4.33
2018-07-13T16:08:30.292Z,4.17
2018-07-13T16:10:59.317Z,4.45
2018-07-13T16:13:27.876Z,4.10
2018-07-13T16:15:56.421Z,3.97
2018-07-13T16:18:25.353Z,4.00
2018-07-13T16:20:56.264Z,4.33
2018-07-13T16:23:24.841Z,4.20
2018-07-13T16:25:53.393Z,4.20
2018-07-13T16:28:22.220Z,4.10
2018-07-13T16:30:51.232Z,4.40
2018-07-13T16:33:19.953Z,3.57
2018-07-13T16:35:48.884Z,3.23
2018-07-13T16:38:17.405Z,3.40
2018-07-13T16:40:45.947Z,3.67
2018-07-13T16:43:14.493Z,4.00
2018-07-13T16:45:43.029Z,3.42
2018-07-13T16:48:11.590Z,3.90
2018-07-13T16:50:40.514Z,3.67
2018-07-13T16:53:08.961Z,3.90
2018-07-13T16:55:37.489Z,3.70
2018-07-13T16:58:06.069Z,3.50
2018-07-13T17:00:35.100Z,3.80
2018-07-13T17:03:03.853Z,3.83
2018-07-13T17:05:32.383Z,3.57
2018-07-13T17:08:00.993Z,3.53
2018-07-13T17:10:29.537Z,3.53
2018-07-13T17:12:58.068Z,3.60
2018-07-13T17:15:27.758Z,3.33
2018-07-13T17:17:58.051Z,3.20
2018-07-13T17:20:27.601Z,3.60
2018-07-13T17:22:56.113Z,3.20
2018-07-13T17:25:25.531Z,3.33
2018-07-13T17:27:54.208Z,3.27
2018-07-13T17:30:22.756Z,3.83
2018-07-13T17:32:51.395Z,3.47
2018-07-13T17:35:19.960Z,3.30
2018-07-13T17:37:48.523Z,3.53
2018-07-13T17:40:17.059Z,3.90
2018-07-13T17:42:45.614Z,3.50
2018-07-13T17:45:15.652Z,3.63
2018-07-13T17:47:45.126Z,3.70
2018-07-13T17:50:13.655Z,3.50
2018-07-13T17:52:42.372Z,3.30
2018-07-13T17:55:10.924Z,3.60
2018-07-13T17:57:39.469Z,3.37
2018-07-13T18:00:08.324Z,3.23
2018-07-13T18:02:37.742Z,3.85
2018-07-13T18:05:06.621Z,3.83
2018-07-13T18:07:35.965Z,3.50
2018-07-13T18:10:06.940Z,3.33
2018-07-13T18:12:36.376Z,3.73
2018-07-13T18:15:05.164Z,3.57
2018-07-13T18:17:33.808Z,25.93
2018-07-13T18:20:02.748Z,32.83
2018-07-13T18:22:33.353Z,28.80
2018-07-13T18:25:03.697Z,17.13
2018-07-13T18:27:34.011Z,18.90
2018-07-13T18:30:03.060Z,10.90
2018-07-13T18:32:32.776Z,3.83
2018-07-13T18:35:11.289Z,3.90
2018-07-13T18:37:50.667Z,4.20
2018-07-13T18:40:29.696Z,3.60
2018-07-13T18:43:11.891Z,3.43
2018-07-13T18:45:53.534Z,3.53
2018-07-13T18:48:24.471Z,3.60
2018-07-13T18:50:53.512Z,3.13
2018-07-13T18:53:25.564Z,2.83
2018-07-13T18:55:55.681Z,3.40
2018-07-13T18:58:25.026Z,3.20
2018-07-13T19:00:54.718Z,2.93
2018-07-13T19:03:24.681Z,3.07
2018-07-13T19:05:53.352Z,3.40
2018-07-13T19:08:22.284Z,3.17
2018-07-13T19:10:50.857Z,3.07
2018-07-13T19:13:19.425Z,3.20
2018-07-13T19:15:47.964Z,3.00
2018-07-13T19:18:17.158Z,3.10
2018-07-13T19:20:46.867Z,2.92
2018-07-13T19:23:16.432Z,3.13
2018-07-13T19:25:45.990Z,3.43
2018-07-13T19:28:14.585Z,3.70
2018-07-13T19:30:44.087Z,3.37
2018-07-13T19:33:12.717Z,3.70
2018-07-13T19:35:41.270Z,3.03
2018-07-13T19:38:09.777Z,3.20
2018-07-13T19:40:38.332Z,3.97
2018-07-13T19:43:06.893Z,4.10
2018-07-13T19:45:37.441Z,4.93
2018-07-13T19:48:06.484Z,5.00
2018-07-13T19:50:53.725Z,4.57
2018-07-13T19:53:31.972Z,7.87
2018-07-13T19:56:10.450Z,5.37
2018-07-13T19:58:54.840Z,3.33
2018-07-13T20:04:19.159Z,4.20
2018-07-13T20:06:49.779Z,4.60
2018-07-13T20:09:22.561Z,5.47
2018-07-13T20:11:55.506Z,4.90
2018-07-13T20:14:26.491Z,4.63
2018-07-13T20:16:55.078Z,4.77
2018-07-13T20:19:24.333Z,4.87
2018-07-13T20:21:54.176Z,4.83
2018-07-13T20:24:28.497Z,5.10
2018-07-13T20:26:59.516Z,4.47
2018-07-13T20:29:28.089Z,4.70
2018-07-13T20:31:57.715Z,4.77
2018-07-13T20:34:26.455Z,4.77
2018-07-13T20:36:54.966Z,4.37
2018-07-13T20:39:23.554Z,5.37
2018-07-13T20:41:52.116Z,4.73
2018-07-13T20:44:28.586Z,4.77
2018-07-13T20:47:03.517Z,4.80
2018-07-13T20:49:32.312Z,4.93
2018-07-13T20:52:00.821Z,4.47
2018-07-13T20:54:29.486Z,4.60
2018-07-13T20:56:59.000Z,4.80
2018-07-13T20:59:28.426Z,4.73
2018-07-13T21:02:02.202Z,4.47
2018-07-13T21:04:33.880Z,5.23
2018-07-13T21:07:04.728Z,4.60
2018-07-13T21:09:34.188Z,4.67
2018-07-13T21:12:03.715Z,5.03
2018-07-13T21:14:34.306Z,5.07
2018-07-13T21:17:09.443Z,5.13
2018-07-13T21:19:39.431Z,4.80
2018-07-13T21:22:07.977Z,5.30
2018-07-13T21:24:36.492Z,4.70
2018-07-13T21:27:10.419Z,4.57
2018-07-13T21:29:43.519Z,4.80
2018-07-13T21:32:12.173Z,5.10
2018-07-13T21:34:45.255Z,5.07
2018-07-13T21:37:18.901Z,5.07
2018-07-13T21:39:49.116Z,4.90
2018-07-13T21:42:20.701Z,4.87
2018-07-13T21:44:51.585Z,5.53
2018-07-13T21:47:21.809Z,5.58
2018-07-13T21:49:51.609Z,5.47
2018-07-13T21:52:25.267Z,4.93
2018-07-13T21:54:54.206Z,5.77
2018-07-13T21:57:25.541Z,5.35
2018-07-13T21:59:59.343Z,5.00
2018-07-13T22:02:29.752Z,5.20
2018-07-13T22:05:00.905Z,4.63
2018-07-13T22:07:32.932Z,4.77
2018-07-13T22:10:09.586Z,4.80
2018-07-13T22:12:43.383Z,5.27
2018-07-13T22:15:15.213Z,4.73
2018-07-13T22:17:50.716Z,5.90
2018-07-13T22:20:25.695Z,5.20
2018-07-13T22:22:56.261Z,5.20
2018-07-13T22:25:25.795Z,5.30
2018-07-13T22:27:56.478Z,5.37
2018-07-13T22:30:28.025Z,5.03
2018-07-13T22:32:57.233Z,5.63
2018-07-13T22:35:30.027Z,5.67
2018-07-13T22:38:00.069Z,6.57
2018-07-13T22:40:29.803Z,5.90
2018-07-13T22:42:59.425Z,6.80
2018-07-13T22:45:30.372Z,6.23
2018-07-13T22:48:01.868Z,6.00
2018-07-13T22:50:31.975Z,6.00
2018-07-13T22:53:01.403Z,6.23
2018-07-13T22:55:34.056Z,5.70
2018-07-13T22:58:03.968Z,6.20
2018-07-13T23:00:33.836Z,7.27
2018-07-13T23:03:04.273Z,6.33
2018-07-13T23:05:33.899Z,6.27
2018-07-13T23:08:03.138Z,7.13
2018-07-13T23:10:33.064Z,6.10
2018-07-13T23:13:02.992Z,6.77
2018-07-13T23:15:33.267Z,6.30
2018-07-13T23:18:03.708Z,6.90
2018-07-13T23:20:33.693Z,6.90
2018-07-13T23:23:03.805Z,6.63
2018-07-13T23:25:33.697Z,6.20
2018-07-13T23:28:03.890Z,7.50
2018-07-13T23:30:33.700Z,6.70
2018-07-13T23:33:04.136Z,6.80
2018-07-13T23:35:34.051Z,6.70
2018-07-13T23:38:03.912Z,6.53
2018-07-13T23:40:32.684Z,7.63
2018-07-13T23:43:02.892Z,7.73
2018-07-13T23:45:33.077Z,6.93
2018-07-13T23:48:02.839Z,6.57
2018-07-13T23:50:32.785Z,7.20
2018-07-13T23:53:02.824Z,7.13
2018-07-13T23:55:33.129Z,7.37
2018-07-13T23:58:03.460Z,7.03
